Time;durP1;ratioP1;P1;durP2;ratioP2;P2;SDS_P1;SDS_P2;PMS_P1;PMS_P2;Temp;Humidity;BMP_temperature;BMP_pressure;BME280_temperature;BME280_humidity;BME280_pressure;Samples;Min_cycle;Max_cycle;Signal;HPM_P1;HPM_P2
2021/03/30 00:02:00;;;;;;;32.03;23.27;;;;;;;;;;6238063;28;20056;-76
2021/03/30 00:05:02;;;;;;;36.50;22.88;;;;;;;;;;6238795;28;20099;-76
2021/03/30 00:08:05;;;;;;;37.47;23.50;;;;;;;;;;6242845;28;20056;-79
2021/03/30 00:11:06;;;;;;;34.70;23.58;;;;;;;;;;6262180;28;20060;-79
2021/03/30 00:14:08;;;;;;;37.90;23.98;;;;;;;;;;6241355;28;20113;-81
2021/03/30 00:17:09;;;;;;;36.60;23.23;;;;;;;;;;6245101;28;20069;-80
2021/03/30 00:20:12;;;;;;;38.33;24.33;;;;;;;;;;6239680;28;20125;-79
2021/03/30 00:23:14;;;;;;;33.58;23.33;;;;;;;;;;6234009;28;20547;-78
2021/03/30 00:26:16;;;;;;;43.13;24.88;;;;;;;;;;6242814;28;20411;-78
2021/03/30 00:29:18;;;;;;;34.92;24.67;;;;;;;;;;6243223;28;20128;-76
2021/03/30 00:32:19;;;;;;;33.72;24.70;;;;;;;;;;6249642;28;20049;-78
2021/03/30 00:35:20;;;;;;;38.47;24.30;;;;;;;;;;6250368;28;20081;-80
2021/03/30 00:38:23;;;;;;;35.00;24.38;;;;;;;;;;6245041;28;20140;-79
2021/03/30 00:41:24;;;;;;;36.13;23.60;;;;;;;;;;6252244;28;20056;-80
2021/03/30 00:44:25;;;;;;;35.33;23.10;;;;;;;;;;6239625;28;20107;-79
2021/03/30 00:47:29;;;;;;;36.47;24.40;;;;;;;;;;6249272;28;20060;-81
2021/03/30 00:50:33;;;;;;;37.33;24.40;;;;;;;;;;6243581;28;20636;-80
2021/03/30 00:53:36;;;;;;;37.15;24.23;;;;;;;;;;6253229;28;20077;-81
2021/03/30 00:56:37;;;;;;;42.33;25.88;;;;;;;;;;6261448;28;20045;-79
2021/03/30 00:59:38;;;;;;;37.20;25.48;;;;;;;;;;6257477;28;20052;-81
2021/03/30 01:02:40;;;;;;;31.45;24.50;;;;;;;;;;6268705;28;20042;-82
2021/03/30 01:05:41;;;;;;;36.97;25.38;;;;;;;;;;6255188;28;20041;-81
2021/03/30 01:09:03;;;;;;;35.20;23.77;;;;;;;;;;6250957;28;20092;-81
2021/03/30 01:12:15;;;;;;;35.63;25.10;;;;;;;;;;6257473;28;20049;-81
2021/03/30 01:15:20;;;;;;;36.72;24.30;;;;;;;;;;6255928;28;20057;-81
2021/03/30 01:18:28;;;;;;;41.45;25.98;;;;;;;;;;6258361;28;20049;-81
2021/03/30 01:21:59;;;;;;;38.88;24.80;;;;;;;;;;6250452;28;20477;-81
2021/03/30 01:25:04;;;;;;;36.28;24.55;;;;;;;;;;6251227;28;20061;-81
2021/03/30 01:28:19;;;;;;;40.20;25.00;;;;;;;;;;6253174;28;20062;-81
2021/03/30 01:31:23;;;;;;;36.50;25.20;;;;;;;;;;6251739;28;21387;-81
2021/03/30 01:34:25;;;;;;;40.58;23.85;;;;;;;;;;6260808;28;20088;-81
2021/03/30 01:37:27;;;;;;;34.22;24.02;;;;;;;;;;6251935;28;20058;-81
2021/03/30 01:40:30;;;;;;;38.10;25.25;;;;;;;;;;6267549;28;20037;-81
2021/03/30 01:43:33;;;;;;;39.57;25.53;;;;;;;;;;6268211;28;20045;-81
2021/03/30 01:46:36;;;;;;;44.58;24.60;;;;;;;;;;6266704;28;20041;-81
2021/03/30 01:49:40;;;;;;;36.17;25.10;;;;;;;;;;6259379;28;20053;-81
2021/03/30 01:52:42;;;;;;;39.40;27.45;;;;;;;;;;6257875;28;20077;-81
2021/03/30 01:55:45;;;;;;;42.45;26.27;;;;;;;;;;6254951;28;20088;-81
2021/03/30 01:58:47;;;;;;;34.72;25.58;;;;;;;;;;6250543;28;20045;-81
2021/03/30 02:01:49;;;;;;;40.97;27.08;;;;;;;;;;6250779;28;20061;-81
2021/03/30 02:04:51;;;;;;;37.83;25.85;;;;;;;;;;6254698;28;20054;-81
2021/03/30 02:07:53;;;;;;;46.10;28.20;;;;;;;;;;6256008;28;20045;-81
2021/03/30 02:10:56;;;;;;;39.22;27.13;;;;;;;;;;6257846;28;20100;-81
2021/03/30 02:13:59;;;;;;;40.05;27.33;;;;;;;;;;6259231;28;20036;-81
2021/03/30 02:17:03;;;;;;;43.80;27.52;;;;;;;;;;6250526;28;20099;-81
2021/03/30 02:20:08;;;;;;;47.22;28.25;;;;;;;;;;6247724;28;20045;-81
2021/03/30 02:23:12;;;;;;;42.53;28.50;;;;;;;;;;6252448;28;20061;-81
2021/03/30 02:26:14;;;;;;;36.88;28.38;;;;;;;;;;6247771;28;20053;-81
2021/03/30 02:29:18;;;;;;;38.03;27.40;;;;;;;;;;6252500;28;20050;-81
2021/03/30 02:32:20;;;;;;;;;;;;;;;;;;6261779;28;20056;-81
2021/03/30 02:35:23;;;;;;;41.63;28.73;;;;;;;;;;6260078;28;19928;-81
2021/03/30 02:38:26;;;;;;;37.13;28.17;;;;;;;;;;6251411;28;20065;-81
2021/03/30 02:41:29;;;;;;;41.90;28.02;;;;;;;;;;6263383;28;20440;-81
2021/03/30 02:44:31;;;;;;;43.03;28.33;;;;;;;;;;6260354;28;20132;-81
2021/03/30 02:47:34;;;;;;;47.05;29.27;;;;;;;;;;6255419;28;20080;-81
2021/03/30 02:50:36;;;;;;;42.47;27.45;;;;;;;;;;6260659;28;20065;-81
2021/03/30 02:53:37;;;;;;;37.08;27.65;;;;;;;;;;6254352;28;20072;-81
2021/03/30 02:56:38;;;;;;;42.30;27.10;;;;;;;;;;6260673;28;20057;-81
2021/03/30 02:59:41;;;;;;;43.50;29.42;;;;;;;;;;6255106;28;20038;-81
2021/03/30 03:02:44;;;;;;;42.47;27.88;;;;;;;;;;6258941;28;20049;-81
2021/03/30 03:05:45;;;;;;;39.58;27.40;;;;;;;;;;6243303;28;20050;-81
2021/03/30 03:08:48;;;;;;;35.72;26.40;;;;;;;;;;6249376;28;20045;-81
2021/03/30 03:11:49;;;;;;;40.50;27.05;;;;;;;;;;6249972;28;20050;-81
2021/03/30 03:14:52;;;;;;;44.60;29.15;;;;;;;;;;6254124;28;20960;-81
2021/03/30 03:17:55;;;;;;;41.75;28.00;;;;;;;;;;6271608;28;20033;-81
2021/03/30 03:20:57;;;;;;;37.63;27.10;;;;;;;;;;6267211;28;20049;-81
2021/03/30 03:23:59;;;;;;;37.80;26.95;;;;;;;;;;6257411;28;20428;-81
2021/03/30 03:27:00;;;;;;;45.38;26.00;;;;;;;;;;6260420;28;20050;-81
2021/03/30 03:30:05;;;;;;;38.85;26.13;;;;;;;;;;6255018;28;20046;-81
2021/03/30 03:33:09;;;;;;;37.25;25.42;;;;;;;;;;6253156;28;20097;-81
2021/03/30 03:36:11;;;;;;;40.65;25.45;;;;;;;;;;6253746;28;20095;-82
2021/03/30 03:39:14;;;;;;;41.13;26.38;;;;;;;;;;6264774;28;20150;-81
2021/03/30 03:42:15;;;;;;;33.95;25.30;;;;;;;;;;6247335;28;20049;-81
2021/03/30 03:45:17;;;;;;;38.95;24.77;;;;;;;;;;6253173;28;20045;-81
2021/03/30 03:48:19;;;;;;;37.88;26.10;;;;;;;;;;6254448;28;20076;-81
2021/03/30 03:51:21;;;;;;;36.38;24.90;;;;;;;;;;6255718;28;20064;-81
2021/03/30 03:54:23;;;;;;;37.85;26.13;;;;;;;;;;6251349;28;20066;-81
2021/03/30 03:57:28;;;;;;;36.15;25.25;;;;;;;;;;6252566;28;20076;-81
2021/03/30 04:00:29;;;;;;;38.40;25.38;;;;;;;;;;6262610;28;20075;-81
2021/03/30 04:03:39;;;;;;;35.15;23.92;;;;;;;;;;6266091;28;20061;-81
2021/03/30 04:06:45;;;;;;;40.20;24.38;;;;;;;;;;6259594;28;20053;-81
2021/03/30 04:09:49;;;;;;;34.95;25.00;;;;;;;;;;6258490;28;20080;-82
2021/03/30 04:12:50;;;;;;;;;;;;;;;;;;6266295;28;20077;-81
2021/03/30 04:15:52;;;;;;;35.50;23.92;;;;;;;;;;6264012;28;20375;-82
2021/03/30 04:18:54;;;;;;;33.67;24.02;;;;;;;;;;6260856;28;20063;-82
2021/03/30 04:21:56;;;;;;;36.83;24.33;;;;;;;;;;6272641;28;20052;-82
2021/03/30 04:24:57;;;;;;;34.63;24.38;;;;;;;;;;6273287;28;20033;-81
2021/03/30 04:27:59;;;;;;;35.70;23.48;;;;;;;;;;6275634;28;20080;-82
2021/03/30 04:31:00;;;;;;;37.53;24.33;;;;;;;;;;6272461;28;20029;-82
2021/03/30 04:34:03;;;;;;;33.10;23.77;;;;;;;;;;6274283;28;20037;-82
2021/03/30 04:37:05;;;;;;;35.65;24.13;;;;;;;;;;6279983;28;20052;-82
2021/03/30 04:40:08;;;;;;;34.28;23.55;;;;;;;;;;6268987;28;20049;-82
2021/03/30 04:43:10;;;;;;;36.35;24.05;;;;;;;;;;6262077;28;20044;-82
2021/03/30 04:46:11;;;;;;;40.92;23.77;;;;;;;;;;6253503;28;20045;-81
2021/03/30 04:49:14;;;;;;;33.45;22.80;;;;;;;;;;6259735;28;20056;-82
2021/03/30 04:52:15;;;;;;;35.20;22.80;;;;;;;;;;6256256;28;20057;-81
2021/03/30 04:55:16;;;;;;;32.63;23.70;;;;;;;;;;6265787;28;20065;-82
2021/03/30 04:58:19;;;;;;;36.85;23.65;;;;;;;;;;6256944;28;20037;-81
2021/03/30 05:01:20;;;;;;;32.35;21.77;;;;;;;;;;6256036;28;20056;-81
2021/03/30 05:04:24;;;;;;;36.60;22.80;;;;;;;;;;6258735;28;20050;-82
2021/03/30 05:07:25;;;;;;;;;;;;;;;;;;6257776;28;20073;-82
2021/03/30 05:10:27;;;;;;;34.58;22.58;;;;;;;;;;6256287;28;19925;-81
2021/03/30 05:13:28;;;;;;;33.70;22.45;;;;;;;;;;6257465;28;20048;-81
2021/03/30 05:16:30;;;;;;;33.95;22.70;;;;;;;;;;6269429;28;20076;-81
2021/03/30 05:19:32;;;;;;;37.22;23.02;;;;;;;;;;6270395;28;20071;-82
2021/03/30 05:22:34;;;;;;;32.33;22.40;;;;;;;;;;6265111;28;20050;-81
2021/03/30 05:25:36;;;;;;;36.05;22.63;;;;;;;;;;6273407;28;20046;-81
2021/03/30 05:28:37;;;;;;;31.40;21.55;;;;;;;;;;6257913;28;20053;-81
2021/03/30 05:31:39;;;;;;;37.58;22.42;;;;;;;;;;6254185;28;20590;-81
2021/03/30 05:34:42;;;;;;;30.30;21.10;;;;;;;;;;6255681;28;20043;-81
2021/03/30 05:37:44;;;;;;;35.00;21.25;;;;;;;;;;6251906;28;20077;-81
2021/03/30 05:40:45;;;;;;;32.63;21.42;;;;;;;;;;6260561;28;20058;-82
2021/03/30 05:43:47;;;;;;;44.80;21.02;;;;;;;;;;6259093;28;20045;-81
2021/03/30 05:47:00;;;;;;;40.90;21.73;;;;;;;;;;6262975;28;20053;-82
2021/03/30 05:50:12;;;;;;;31.67;21.92;;;;;;;;;;6243984;28;20052;-81
2021/03/30 05:53:15;;;;;;;35.53;22.25;;;;;;;;;;6257466;28;20123;-82
2021/03/30 05:56:18;;;;;;;36.60;22.75;;;;;;;;;;6260342;28;20050;-82
2021/03/30 05:59:21;;;;;;;35.83;23.67;;;;;;;;;;6264735;28;20054;-82
2021/03/30 06:02:23;;;;;;;34.00;23.00;;;;;;;;;;6266024;28;20044;-82
2021/03/30 06:05:27;;;;;;;35.00;23.63;;;;;;;;;;6266095;28;20065;-82
2021/03/30 06:08:30;;;;;;;35.28;24.48;;;;;;;;;;6272666;28;20049;-82
2021/03/30 06:11:31;;;;;;;33.57;23.83;;;;;;;;;;6269412;28;20060;-81
2021/03/30 06:14:40;;;;;;;41.13;24.23;;;;;;;;;;6261876;28;20049;-82
2021/03/30 06:17:42;;;;;;;38.17;24.48;;;;;;;;;;6262429;28;20071;-81
2021/03/30 06:20:45;;;;;;;36.80;24.15;;;;;;;;;;6255416;28;20057;-81
2021/03/30 06:23:46;;;;;;;37.53;23.00;;;;;;;;;;6261265;28;20068;-81
2021/03/30 06:26:48;;;;;;;35.35;24.17;;;;;;;;;;6262430;28;20048;-81
2021/03/30 06:29:54;;;;;;;37.90;24.45;;;;;;;;;;6263914;28;20095;-81
2021/03/30 06:32:55;;;;;;;33.78;24.13;;;;;;;;;;6265470;28;20061;-81
2021/03/30 06:36:19;;;;;;;39.40;24.42;;;;;;;;;;6270115;28;20048;-82
2021/03/30 06:39:33;;;;;;;40.90;24.63;;;;;;;;;;6268381;28;20047;-82
2021/03/30 06:42:39;;;;;;;37.50;24.73;;;;;;;;;;6265383;28;20067;-82
2021/03/30 06:45:41;;;;;;;31.65;23.45;;;;;;;;;;6265305;28;20060;-82
2021/03/30 06:48:44;;;;;;;41.13;24.85;;;;;;;;;;6269935;28;20033;-82
2021/03/30 06:51:47;;;;;;;39.10;24.73;;;;;;;;;;6267153;28;20049;-81
2021/03/30 06:54:53;;;;;;;40.23;25.17;;;;;;;;;;6269104;28;20032;-84
2021/03/30 06:57:59;;;;;;;36.83;23.55;;;;;;;;;;6271544;28;20064;-81
2021/03/30 07:01:01;;;;;;;40.22;25.00;;;;;;;;;;6266115;28;20065;-81
2021/03/30 07:04:03;;;;;;;39.05;25.08;;;;;;;;;;6260398;28;20069;-81
2021/03/30 07:07:05;;;;;;;32.58;24.67;;;;;;;;;;6258337;28;20060;-81
2021/03/30 07:10:07;;;;;;;41.35;25.95;;;;;;;;;;6257958;28;20049;-82
2021/03/30 07:13:10;;;;;;;39.53;26.45;;;;;;;;;;6268114;28;20100;-81
2021/03/30 07:16:16;;;;;;;43.70;28.52;;;;;;;;;;6260143;28;20058;-81
2021/03/30 07:19:23;;;;;;;40.90;28.85;;;;;;;;;;6262477;28;20071;-82
2021/03/30 07:22:27;;;;;;;41.13;29.45;;;;;;;;;;6249130;28;20049;-82
2021/03/30 07:25:28;;;;;;;45.05;29.33;;;;;;;;;;6254201;28;20064;-82
2021/03/30 07:28:32;;;;;;;45.08;30.83;;;;;;;;;;6251058;28;20041;-82
2021/03/30 07:31:38;;;;;;;47.85;29.38;;;;;;;;;;6255623;28;20052;-82
2021/03/30 07:34:47;;;;;;;44.80;30.13;;;;;;;;;;6259794;28;20049;-82
2021/03/30 07:37:55;;;;;;;38.53;27.90;;;;;;;;;;6264161;28;20046;-82
2021/03/30 07:40:57;;;;;;;38.20;27.33;;;;;;;;;;6266139;28;20117;-82
2021/03/30 07:44:01;;;;;;;43.20;26.33;;;;;;;;;;6251515;28;20145;-82
2021/03/30 07:47:02;;;;;;;36.42;26.38;;;;;;;;;;6264781;28;20096;-82
2021/03/30 07:50:07;;;;;;;36.10;26.67;;;;;;;;;;6267996;28;20088;-82
2021/03/30 07:53:09;;;;;;;41.65;26.58;;;;;;;;;;6256439;28;20049;-82
2021/03/30 07:56:12;;;;;;;36.72;26.27;;;;;;;;;;6268389;28;20045;-83
2021/03/30 07:59:48;;;;;;;38.97;27.30;;;;;;;;;;6262016;28;20247;-82
2021/03/30 08:02:50;;;;;;;38.50;26.92;;;;;;;;;;6257488;28;20034;-82
2021/03/30 08:06:07;;;;;;;41.92;27.73;;;;;;;;;;6258586;28;20088;-83
2021/03/30 08:09:19;;;;;;;38.90;27.02;;;;;;;;;;6257955;28;20042;-83
2021/03/30 08:12:20;;;;;;;44.55;26.98;;;;;;;;;;6260600;28;20053;-83
2021/03/30 08:15:42;;;;;;;36.92;26.85;;;;;;;;;;6265098;28;20050;-83
2021/03/30 08:18:44;;;;;;;38.20;27.35;;;;;;;;;;6260822;28;20049;-83
2021/03/30 08:21:53;;;;;;;35.47;25.85;;;;;;;;;;6261555;28;20049;-83
2021/03/30 08:24:57;;;;;;;36.83;26.80;;;;;;;;;;6264671;28;20068;-83
2021/03/30 08:27:59;;;;;;;39.20;28.48;;;;;;;;;;6262443;28;20073;-82
2021/03/30 08:31:03;;;;;;;42.38;29.17;;;;;;;;;;6250594;28;20054;-83
2021/03/30 08:34:06;;;;;;;37.58;29.05;;;;;;;;;;6257472;28;20051;-83
2021/03/30 08:37:10;;;;;;;44.13;30.10;;;;;;;;;;6258493;28;20505;-83
2021/03/30 08:40:41;;;;;;;44.53;28.80;;;;;;;;;;6261337;28;20056;-82
2021/03/30 08:44:13;;;;;;;36.72;28.15;;;;;;;;;;6252855;28;20041;-83
2021/03/30 08:47:36;;;;;;;41.40;27.98;;;;;;;;;;6263893;28;20053;-83
2021/03/30 08:50:39;;;;;;;39.63;29.55;;;;;;;;;;6256618;28;20136;-83
2021/03/30 08:53:40;;;;;;;40.17;29.90;;;;;;;;;;6256299;28;20054;-83
2021/03/30 08:56:43;;;;;;;36.63;28.50;;;;;;;;;;6262338;28;20052;-83
2021/03/30 08:59:46;;;;;;;39.42;30.02;;;;;;;;;;6260609;28;20080;-83
2021/03/30 09:02:58;;;;;;;39.10;29.75;;;;;;;;;;6260909;28;20464;-83
2021/03/30 09:05:59;;;;;;;43.63;29.52;;;;;;;;;;6261533;28;20148;-83
2021/03/30 09:09:01;;;;;;;43.50;31.35;;;;;;;;;;6267551;28;20196;-83
2021/03/30 09:12:06;;;;;;;42.83;29.77;;;;;;;;;;6265611;28;20042;-83
2021/03/30 09:15:09;;;;;;;38.83;28.98;;;;;;;;;;6259589;28;20048;-83
2021/03/30 09:18:13;;;;;;;35.33;28.20;;;;;;;;;;6257282;28;20037;-82
2021/03/30 09:21:18;;;;;;;37.72;29.30;;;;;;;;;;6252529;28;20716;-82
2021/03/30 09:24:29;;;;;;;43.35;34.13;;;;;;;;;;6262642;28;20108;-81
2021/03/30 09:27:34;;;;;;;39.80;31.83;;;;;;;;;;6261175;28;20034;-83
2021/03/30 09:30:36;;;;;;;39.30;30.77;;;;;;;;;;6261926;28;20054;-83
2021/03/30 09:33:39;;;;;;;50.60;33.63;;;;;;;;;;6259103;28;20176;-82
2021/03/30 09:36:42;;;;;;;45.40;32.50;;;;;;;;;;6259123;28;20050;-83
2021/03/30 09:39:44;;;;;;;47.00;34.28;;;;;;;;;;6264992;28;20056;-82
2021/03/30 09:42:47;;;;;;;44.85;32.70;;;;;;;;;;6250041;28;20057;-82
2021/03/30 09:45:48;;;;;;;44.15;31.83;;;;;;;;;;6265482;28;20053;-82
2021/03/30 09:48:50;;;;;;;41.35;34.38;;;;;;;;;;6265586;28;20510;-82
2021/03/30 09:51:52;;;;;;;44.85;35.75;;;;;;;;;;6252391;28;20057;-82
2021/03/30 09:54:53;;;;;;;42.95;32.53;;;;;;;;;;6253892;28;20272;-83
2021/03/30 09:58:03;;;;;;;43.35;33.88;;;;;;;;;;6254279;28;20068;-84
2021/03/30 10:01:04;;;;;;;41.78;32.58;;;;;;;;;;6253371;28;20045;-83
2021/03/30 10:04:06;;;;;;;43.30;35.47;;;;;;;;;;6257645;28;20066;-83
2021/03/30 10:07:17;;;;;;;45.67;34.90;;;;;;;;;;6241262;28;20080;-83
2021/03/30 10:10:18;;;;;;;45.72;34.30;;;;;;;;;;6256554;28;20045;-83
2021/03/30 10:13:26;;;;;;;42.08;33.38;;;;;;;;;;6249887;28;20061;-83
2021/03/30 10:16:27;;;;;;;37.10;29.25;;;;;;;;;;6252021;28;20053;-84
2021/03/30 10:19:28;;;;;;;39.58;32.13;;;;;;;;;;6267129;28;20048;-84
2021/03/30 10:22:34;;;;;;;46.00;33.95;;;;;;;;;;6251593;28;20045;-83
2021/03/30 10:25:36;;;;;;;40.65;32.58;;;;;;;;;;6260395;28;20045;-81
2021/03/30 10:28:38;;;;;;;36.50;31.88;;;;;;;;;;6249165;28;20041;-82
2021/03/30 10:31:43;;;;;;;41.28;31.15;;;;;;;;;;6259732;28;20071;-82
2021/03/30 10:34:47;;;;;;;39.78;30.85;;;;;;;;;;6254580;28;20104;-81
2021/03/30 10:37:48;;;;;;;40.28;30.23;;;;;;;;;;6251751;28;20049;-81
2021/03/30 10:40:49;;;;;;;40.10;29.52;;;;;;;;;;6255905;28;20042;-84
2021/03/30 10:43:58;;;;;;;36.60;28.88;;;;;;;;;;6256319;28;20056;-81
2021/03/30 10:46:59;;;;;;;32.72;29.00;;;;;;;;;;6260272;28;20049;-82
2021/03/30 10:50:03;;;;;;;37.15;29.80;;;;;;;;;;6258489;28;20049;-80
2021/03/30 10:53:05;;;;;;;35.85;30.33;;;;;;;;;;6259994;28;20569;-80
2021/03/30 10:56:07;;;;;;;39.65;31.48;;;;;;;;;;6265711;28;20060;-81
2021/03/30 10:59:10;;;;;;;33.40;28.15;;;;;;;;;;6260209;28;20051;-80
2021/03/30 11:02:11;;;;;;;;;;;;;;;;;;6263002;28;20064;-83
2021/03/30 11:05:15;;;;;;;33.95;29.70;;;;;;;;;;6268603;28;19921;-82
2021/03/30 11:08:16;;;;;;;39.10;31.23;;;;;;;;;;6247271;28;20050;-81
2021/03/30 11:11:17;;;;;;;38.35;29.45;;;;;;;;;;6263343;28;20507;-81
2021/03/30 11:14:20;;;;;;;38.92;28.08;;;;;;;;;;6253207;28;20056;-81
2021/03/30 11:17:21;;;;;;;35.97;27.88;;;;;;;;;;6252236;28;20071;-81
2021/03/30 11:20:23;;;;;;;37.30;27.75;;;;;;;;;;6254504;28;20042;-82
2021/03/30 11:23:24;;;;;;;33.85;28.60;;;;;;;;;;6253786;28;20130;-83
2021/03/30 11:26:26;;;;;;;33.13;28.73;;;;;;;;;;6254602;28;20049;-81
2021/03/30 11:29:36;;;;;;;33.38;29.10;;;;;;;;;;6263296;28;20073;-81
2021/03/30 11:32:43;;;;;;;39.63;28.77;;;;;;;;;;6247312;28;20052;-80
2021/03/30 11:35:49;;;;;;;32.95;29.45;;;;;;;;;;6249271;28;20077;-81
2021/03/30 11:38:50;;;;;;;33.72;27.58;;;;;;;;;;6247795;28;20085;-81
2021/03/30 11:41:51;;;;;;;32.92;27.20;;;;;;;;;;6244134;28;20131;-81
2021/03/30 11:44:54;;;;;;;35.55;26.33;;;;;;;;;;6243272;28;20058;-82
2021/03/30 11:47:55;;;;;;;41.28;29.15;;;;;;;;;;6246119;28;20136;-82
2021/03/30 11:50:56;;;;;;;32.38;27.67;;;;;;;;;;6252568;28;20077;-80
2021/03/30 11:53:57;;;;;;;28.65;24.38;;;;;;;;;;6256038;28;20613;-82
2021/03/30 11:56:58;;;;;;;35.55;27.35;;;;;;;;;;6250087;28;20148;-81
2021/03/30 12:00:00;;;;;;;35.22;26.55;;;;;;;;;;6253540;28;20057;-81
2021/03/30 12:03:01;;;;;;;29.67;26.58;;;;;;;;;;6253558;28;21251;-80
2021/03/30 12:06:05;;;;;;;39.88;28.50;;;;;;;;;;6245946;28;20046;-81
2021/03/30 12:09:07;;;;;;;31.60;26.38;;;;;;;;;;6239460;28;20081;-81
2021/03/30 12:12:09;;;;;;;33.95;27.02;;;;;;;;;;6240446;28;20068;-78
2021/03/30 12:15:12;;;;;;;32.30;24.95;;;;;;;;;;6235781;28;20469;-78
2021/03/30 12:18:13;;;;;;;32.00;27.17;;;;;;;;;;6255084;28;20160;-80
2021/03/30 12:21:14;;;;;;;34.38;28.55;;;;;;;;;;6244929;28;20065;-82
2021/03/30 12:24:16;;;;;;;35.60;28.73;;;;;;;;;;6254619;28;20087;-80
2021/03/30 12:27:17;;;;;;;34.92;28.55;;;;;;;;;;6244639;28;20049;-79
2021/03/30 12:30:19;;;;;;;30.42;25.33;;;;;;;;;;6237522;28;20484;-80
2021/03/30 12:33:20;;;;;;;32.55;25.65;;;;;;;;;;6242131;28;20480;-79
2021/03/30 12:36:22;;;;;;;32.83;27.80;;;;;;;;;;6233683;28;20052;-79
2021/03/30 12:39:23;;;;;;;35.33;26.52;;;;;;;;;;6240695;28;20064;-79
2021/03/30 12:42:24;;;;;;;36.80;27.58;;;;;;;;;;6237680;28;20095;-79
2021/03/30 12:45:26;;;;;;;31.48;27.00;;;;;;;;;;6255778;28;20050;-79
2021/03/30 12:48:27;;;;;;;36.13;29.70;;;;;;;;;;6234820;28;20046;-80
2021/03/30 12:51:28;;;;;;;31.30;27.88;;;;;;;;;;6247253;28;20412;-80
2021/03/30 12:54:29;;;;;;;32.45;27.40;;;;;;;;;;6245934;28;20068;-79
2021/03/30 12:57:30;;;;;;;38.75;28.55;;;;;;;;;;6245783;28;20129;-80
2021/03/30 13:00:34;;;;;;;32.25;27.80;;;;;;;;;;6245309;28;20049;-81
2021/03/30 13:03:35;;;;;;;32.03;26.95;;;;;;;;;;6244431;28;20365;-79
2021/03/30 13:06:36;;;;;;;30.55;25.73;;;;;;;;;;6235831;28;20077;-79
2021/03/30 13:09:39;;;;;;;32.25;26.23;;;;;;;;;;6239368;28;20054;-79
2021/03/30 13:12:40;;;;;;;33.63;26.55;;;;;;;;;;6241223;28;20192;-79
2021/03/30 13:15:42;;;;;;;35.20;28.25;;;;;;;;;;6239992;28;20898;-79
2021/03/30 13:18:43;;;;;;;31.80;26.17;;;;;;;;;;6249429;28;20057;-79
2021/03/30 13:21:44;;;;;;;28.95;25.50;;;;;;;;;;6240581;28;20503;-79
2021/03/30 13:24:45;;;;;;;32.00;28.27;;;;;;;;;;6243182;28;20049;-79
2021/03/30 13:27:47;;;;;;;34.67;26.05;;;;;;;;;;6240761;28;20044;-82
2021/03/30 13:30:49;;;;;;;29.08;24.38;;;;;;;;;;6250528;28;20049;-81
2021/03/30 13:33:50;;;;;;;34.65;27.70;;;;;;;;;;6250451;28;20042;-80
2021/03/30 13:36:51;;;;;;;32.35;25.85;;;;;;;;;;6260373;28;20053;-80
2021/03/30 13:39:52;;;;;;;34.28;27.17;;;;;;;;;;6252326;28;20053;-80
2021/03/30 13:42:53;;;;;;;31.80;25.58;;;;;;;;;;6267922;28;20456;-80
2021/03/30 13:45:55;;;;;;;34.50;26.70;;;;;;;;;;6246280;28;20033;-79
2021/03/30 13:48:56;;;;;;;29.08;25.05;;;;;;;;;;6259426;28;20057;-80
2021/03/30 13:51:58;;;;;;;33.78;24.25;;;;;;;;;;6250716;28;20045;-80
2021/03/30 13:54:59;;;;;;;32.88;24.13;;;;;;;;;;6247838;28;20038;-80
2021/03/30 13:58:01;;;;;;;36.38;25.52;;;;;;;;;;6237921;28;20501;-83
2021/03/30 14:01:03;;;;;;;35.08;25.67;;;;;;;;;;6239743;28;20045;-83
2021/03/30 14:04:05;;;;;;;29.98;24.90;;;;;;;;;;6237945;28;20049;-81
2021/03/30 14:07:06;;;;;;;33.78;27.10;;;;;;;;;;6251652;28;20050;-79
2021/03/30 14:10:09;;;;;;;35.97;26.80;;;;;;;;;;6256810;28;20107;-79
2021/03/30 14:13:13;;;;;;;36.58;24.90;;;;;;;;;;6241878;28;21382;-78
2021/03/30 14:16:18;;;;;;;35.03;24.52;;;;;;;;;;6245565;28;20053;-78
2021/03/30 14:19:21;;;;;;;44.40;26.33;;;;;;;;;;6246573;28;20152;-81
2021/03/30 14:22:24;;;;;;;33.30;26.65;;;;;;;;;;6249513;28;20278;-79
2021/03/30 14:25:33;;;;;;;34.53;26.45;;;;;;;;;;6252621;28;20069;-79
2021/03/30 14:28:34;;;;;;;39.03;25.52;;;;;;;;;;6227403;28;20042;-78
2021/03/30 14:31:36;;;;;;;35.07;26.03;;;;;;;;;;6235387;28;20080;-79
2021/03/30 14:34:37;;;;;;;;;;;;;;;;;;6237835;28;20076;-78
2021/03/30 14:37:38;;;;;;;36.72;29.27;;;;;;;;;;6250044;28;19921;-78
2021/03/30 14:40:44;;;;;;;35.50;25.95;;;;;;;;;;6244651;28;20060;-80
2021/03/30 14:43:54;;;;;;;35.85;27.73;;;;;;;;;;6241115;28;20060;-79
2021/03/30 14:53:54;;;;;;;38.20;26.60;;;;;;;;;;6250140;28;20115;-80
2021/03/30 14:57:00;;;;;;;38.38;27.88;;;;;;;;;;6254489;28;20111;-80
2021/03/30 15:00:04;;;;;;;40.88;27.55;;;;;;;;;;6247519;28;20050;-79
2021/03/30 15:03:10;;;;;;;36.30;26.50;;;;;;;;;;6251578;28;20046;-80
2021/03/30 15:06:11;;;;;;;38.03;26.90;;;;;;;;;;6250487;28;20140;-84
2021/03/30 15:09:12;;;;;;;35.05;27.13;;;;;;;;;;6258122;28;20041;-82
2021/03/30 15:12:14;;;;;;;37.30;26.60;;;;;;;;;;6255820;28;20041;-81
2021/03/30 15:15:16;;;;;;;37.30;26.73;;;;;;;;;;6253253;28;20084;-82
2021/03/30 15:18:18;;;;;;;;;;;;;;;;;;6257671;28;20085;-80
2021/03/30 15:21:20;;;;;;;37.53;26.27;;;;;;;;;;6266557;28;20015;-81
2021/03/30 15:24:21;;;;;;;38.53;27.10;;;;;;;;;;6254091;28;20467;-82
2021/03/30 15:27:23;;;;;;;52.35;28.27;;;;;;;;;;6275084;28;20065;-80
2021/03/30 15:30:24;;;;;;;36.08;26.42;;;;;;;;;;6261755;28;20061;-81
2021/03/30 15:33:27;;;;;;;40.60;26.70;;;;;;;;;;6252686;28;20484;-83
2021/03/30 15:36:28;;;;;;;36.45;28.05;;;;;;;;;;6251804;28;20049;-83
2021/03/30 15:39:29;;;;;;;38.53;24.88;;;;;;;;;;6241630;28;20057;-80
2021/03/30 15:42:30;;;;;;;34.25;26.42;;;;;;;;;;6252960;28;20326;-83
2021/03/30 15:45:47;;;;;;;35.92;26.88;;;;;;;;;;6258060;28;20060;-80
2021/03/30 15:48:55;;;;;;;37.00;27.08;;;;;;;;;;6255094;28;20076;-82
2021/03/30 15:51:56;;;;;;;36.83;25.52;;;;;;;;;;6243292;28;20053;-78
2021/03/30 15:55:01;;;;;;;36.38;25.77;;;;;;;;;;6247329;28;20061;-77
2021/03/30 15:58:02;;;;;;;39.22;26.52;;;;;;;;;;6250599;28;20041;-79
2021/03/30 16:01:06;;;;;;;41.00;26.65;;;;;;;;;;6237074;28;20053;-76
2021/03/30 16:04:08;;;;;;;41.10;27.27;;;;;;;;;;6231814;28;20053;-76
2021/03/30 16:07:09;;;;;;;;;;;;;;;;;;6230451;28;20053;-76
2021/03/30 16:10:12;;;;;;;39.97;25.95;;;;;;;;;;6239726;28;19989;-77
2021/03/30 16:13:13;;;;;;;;;;;;;;;;;;6236226;28;20042;-75
2021/03/30 16:16:14;;;;;;;38.00;26.30;;;;;;;;;;6230823;28;19921;-75
2021/03/30 16:19:16;;;;;;;36.42;25.40;;;;;;;;;;6236754;28;20057;-74
2021/03/30 16:22:17;;;;;;;44.53;27.60;;;;;;;;;;6234167;28;20122;-74
2021/03/30 16:25:19;;;;;;;40.60;25.38;;;;;;;;;;6229824;28;20080;-74
2021/03/30 16:28:21;;;;;;;42.17;25.15;;;;;;;;;;6225553;28;20149;-74
2021/03/30 16:31:22;;;;;;;36.92;25.95;;;;;;;;;;6228078;28;20041;-74
2021/03/30 16:34:24;;;;;;;42.92;25.83;;;;;;;;;;6227947;28;20097;-74
2021/03/30 16:37:25;;;;;;;38.35;23.77;;;;;;;;;;6225281;28;20062;-75
2021/03/30 16:40:26;;;;;;;38.35;24.85;;;;;;;;;;6224911;28;20104;-75
2021/03/30 16:43:27;;;;;;;41.25;25.77;;;;;;;;;;6231717;28;20129;-75
2021/03/30 16:46:29;;;;;;;36.63;24.08;;;;;;;;;;6225229;28;20042;-75
2021/03/30 16:49:37;;;;;;;35.88;23.98;;;;;;;;;;6230948;28;20041;-74
2021/03/30 16:52:38;;;;;;;38.97;24.90;;;;;;;;;;6233792;28;20512;-74
2021/03/30 16:55:39;;;;;;;41.33;24.17;;;;;;;;;;6233802;28;20050;-78
2021/03/30 16:58:40;;;;;;;38.78;23.92;;;;;;;;;;6237508;28;20072;-78
2021/03/30 17:01:43;;;;;;;35.88;24.08;;;;;;;;;;6240283;28;20049;-78
2021/03/30 17:04:47;;;;;;;39.22;23.02;;;;;;;;;;6237860;28;20046;-78
2021/03/30 17:07:48;;;;;;;38.05;22.38;;;;;;;;;;6243707;28;20055;-78
2021/03/30 17:10:50;;;;;;;38.20;22.92;;;;;;;;;;6234862;28;20042;-78
2021/03/30 17:13:51;;;;;;;37.95;22.92;;;;;;;;;;6234302;28;20056;-78
2021/03/30 17:16:52;;;;;;;35.00;20.42;;;;;;;;;;6234320;28;20133;-77
2021/03/30 17:19:54;;;;;;;39.70;20.98;;;;;;;;;;6238047;28;20161;-78
2021/03/30 17:22:55;;;;;;;37.58;23.05;;;;;;;;;;6240917;28;20144;-77
2021/03/30 17:25:58;;;;;;;44.60;23.50;;;;;;;;;;6234532;28;20454;-77
2021/03/30 17:28:59;;;;;;;40.53;23.65;;;;;;;;;;6239893;28;20054;-77
2021/03/30 17:32:00;;;;;;;38.47;24.25;;;;;;;;;;6236023;28;20161;-78
2021/03/30 17:35:02;;;;;;;40.50;24.35;;;;;;;;;;6239068;28;20467;-77
2021/03/30 17:38:05;;;;;;;41.33;25.02;;;;;;;;;;6234616;28;20049;-77
2021/03/30 17:41:07;;;;;;;35.95;23.33;;;;;;;;;;6237959;28;20748;-78
2021/03/30 17:44:08;;;;;;;40.60;24.65;;;;;;;;;;6234817;28;20089;-78
2021/03/30 17:47:09;;;;;;;45.20;26.00;;;;;;;;;;6241608;28;20511;-78
2021/03/30 17:50:14;;;;;;;37.80;24.50;;;;;;;;;;6248579;28;20121;-79
2021/03/30 17:53:15;;;;;;;42.75;25.77;;;;;;;;;;6232616;28;20638;-78
2021/03/30 17:56:17;;;;;;;42.42;25.55;;;;;;;;;;6235827;28;20080;-78
2021/03/30 17:59:18;;;;;;;40.53;25.42;;;;;;;;;;6239831;28;20108;-75